sensor_id;sensor_type;location;lat;lon;timestamp;P1;durP1;ratioP1;P2;durP2;ratioP2
41219;SDS011;26951;47.338;9.196;2022-08-19T00:01:50;7.10;;;4.28;;
41219;SDS011;26951;47.338;9.196;2022-08-19T00:04:36;6.13;;;5.20;;
41219;SDS011;26951;47.338;9.196;2022-08-19T00:07:21;5.40;;;4.90;;
41219;SDS011;26951;47.338;9.196;2022-08-19T00:10:05;5.82;;;4.38;;
41219;SDS011;26951;47.338;9.196;2022-08-19T00:12:51;5.25;;;4.72;;
41219;SDS011;26951;47.338;9.196;2022-08-19T00:15:35;5.35;;;4.85;;
41219;SDS011;26951;47.338;9.196;2022-08-19T00:18:20;5.45;;;4.95;;
41219;SDS011;26951;47.338;9.196;2022-08-19T00:21:04;4.22;;;3.83;;
41219;SDS011;26951;47.338;9.196;2022-08-19T00:23:51;6.18;;;4.70;;
41219;SDS011;26951;47.338;9.196;2022-08-19T00:26:36;5.78;;;5.05;;
41219;SDS011;26951;47.338;9.196;2022-08-19T00:32:06;7.60;;;5.00;;
41219;SDS011;26951;47.338;9.196;2022-08-19T00:34:51;6.07;;;4.97;;
41219;SDS011;26951;47.338;9.196;2022-08-19T00:37:36;4.95;;;4.45;;
41219;SDS011;26951;47.338;9.196;2022-08-19T00:40:21;5.07;;;4.57;;
41219;SDS011;26951;47.338;9.196;2022-08-19T00:43:09;5.87;;;5.37;;
41219;SDS011;26951;47.338;9.196;2022-08-19T00:45:54;5.90;;;5.18;;
41219;SDS011;26951;47.338;9.196;2022-08-19T00:48:39;5.13;;;4.63;;
41219;SDS011;26951;47.338;9.196;2022-08-19T00:51:24;5.57;;;4.97;;
41219;SDS011;26951;47.338;9.196;2022-08-19T00:54:10;5.00;;;4.50;;
41219;SDS011;26951;47.338;9.196;2022-08-19T00:56:55;5.50;;;5.00;;
41219;SDS011;26951;47.338;9.196;2022-08-19T00:59:40;5.20;;;4.45;;
41219;SDS011;26951;47.338;9.196;2022-08-19T01:02:28;5.28;;;4.78;;
41219;SDS011;26951;47.338;9.196;2022-08-19T01:05:15;5.15;;;4.65;;
41219;SDS011;26951;47.338;9.196;2022-08-19T01:08:04;4.88;;;4.47;;
41219;SDS011;26951;47.338;9.196;2022-08-19T01:10:50;5.78;;;5.18;;
41219;SDS011;26951;47.338;9.196;2022-08-19T01:13:37;6.40;;;5.15;;
41219;SDS011;26951;47.338;9.196;2022-08-19T01:16:22;5.60;;;5.10;;
41219;SDS011;26951;47.338;9.196;2022-08-19T01:19:18;5.30;;;4.80;;
41219;SDS011;26951;47.338;9.196;2022-08-19T01:22:19;4.93;;;4.43;;
41219;SDS011;26951;47.338;9.196;2022-08-19T01:25:13;4.43;;;4.00;;
41219;SDS011;26951;47.338;9.196;2022-08-19T01:27:59;5.00;;;4.50;;
41219;SDS011;26951;47.338;9.196;2022-08-19T01:30:43;4.75;;;4.25;;
41219;SDS011;26951;47.338;9.196;2022-08-19T01:33:28;5.38;;;4.45;;
41219;SDS011;26951;47.338;9.196;2022-08-19T01:36:21;5.40;;;4.90;;
41219;SDS011;26951;47.338;9.196;2022-08-19T01:39:10;5.97;;;5.13;;
41219;SDS011;26951;47.338;9.196;2022-08-19T01:41:56;5.57;;;5.03;;
41219;SDS011;26951;47.338;9.196;2022-08-19T01:44:40;7.97;;;5.40;;
41219;SDS011;26951;47.338;9.196;2022-08-19T01:47:24;5.43;;;3.90;;
41219;SDS011;26951;47.338;9.196;2022-08-19T01:50:09;6.70;;;4.85;;
41219;SDS011;26951;47.338;9.196;2022-08-19T01:52:55;5.75;;;4.68;;
41219;SDS011;26951;47.338;9.196;2022-08-19T01:55:40;4.50;;;4.10;;
41219;SDS011;26951;47.338;9.196;2022-08-19T01:58:27;4.75;;;4.18;;
41219;SDS011;26951;47.338;9.196;2022-08-19T02:01:16;5.03;;;4.53;;
41219;SDS011;26951;47.338;9.196;2022-08-19T02:04:01;5.03;;;4.63;;
41219;SDS011;26951;47.338;9.196;2022-08-19T02:06:46;6.03;;;5.43;;
41219;SDS011;26951;47.338;9.196;2022-08-19T02:09:31;4.53;;;4.03;;
41219;SDS011;26951;47.338;9.196;2022-08-19T02:12:15;4.38;;;3.97;;
41219;SDS011;26951;47.338;9.196;2022-08-19T02:14:59;5.03;;;4.30;;
41219;SDS011;26951;47.338;9.196;2022-08-19T02:17:45;4.90;;;4.40;;
41219;SDS011;26951;47.338;9.196;2022-08-19T02:23:15;5.40;;;4.32;;
41219;SDS011;26951;47.338;9.196;2022-08-19T02:26:00;6.13;;;4.32;;
41219;SDS011;26951;47.338;9.196;2022-08-19T02:28:44;4.78;;;4.28;;
41219;SDS011;26951;47.338;9.196;2022-08-19T02:31:29;4.32;;;3.80;;
41219;SDS011;26951;47.338;9.196;2022-08-19T02:34:13;5.00;;;4.20;;
41219;SDS011;26951;47.338;9.196;2022-08-19T02:36:57;4.63;;;4.10;;
41219;SDS011;26951;47.338;9.196;2022-08-19T02:39:41;4.00;;;3.60;;
41219;SDS011;26951;47.338;9.196;2022-08-19T02:42:25;4.30;;;3.90;;
41219;SDS011;26951;47.338;9.196;2022-08-19T02:45:09;4.50;;;3.50;;
41219;SDS011;26951;47.338;9.196;2022-08-19T02:47:54;3.67;;;3.35;;
41219;SDS011;26951;47.338;9.196;2022-08-19T02:50:40;3.75;;;3.45;;
41219;SDS011;26951;47.338;9.196;2022-08-19T02:53:26;3.70;;;3.33;;
41219;SDS011;26951;47.338;9.196;2022-08-19T02:56:11;3.88;;;3.58;;
41219;SDS011;26951;47.338;9.196;2022-08-19T02:58:55;5.18;;;3.80;;
41219;SDS011;26951;47.338;9.196;2022-08-19T03:01:40;4.00;;;3.60;;
41219;SDS011;26951;47.338;9.196;2022-08-19T03:04:25;4.00;;;3.65;;
41219;SDS011;26951;47.338;9.196;2022-08-19T03:07:12;3.92;;;3.50;;
41219;SDS011;26951;47.338;9.196;2022-08-19T03:09:57;3.40;;;3.10;;
41219;SDS011;26951;47.338;9.196;2022-08-19T03:12:42;5.40;;;3.70;;
41219;SDS011;26951;47.338;9.196;2022-08-19T03:15:26;4.32;;;3.80;;
41219;SDS011;26951;47.338;9.196;2022-08-19T03:18:11;3.97;;;3.58;;
41219;SDS011;26951;47.338;9.196;2022-08-19T03:20:55;5.32;;;3.47;;
41219;SDS011;26951;47.338;9.196;2022-08-19T03:23:40;3.25;;;2.95;;
41219;SDS011;26951;47.338;9.196;2022-08-19T03:26:24;3.97;;;3.63;;
41219;SDS011;26951;47.338;9.196;2022-08-19T03:29:08;3.50;;;3.20;;
41219;SDS011;26951;47.338;9.196;2022-08-19T03:31:54;3.97;;;3.58;;
41219;SDS011;26951;47.338;9.196;2022-08-19T03:34:38;4.57;;;3.50;;
41219;SDS011;26951;47.338;9.196;2022-08-19T03:37:23;3.47;;;3.10;;
41219;SDS011;26951;47.338;9.196;2022-08-19T03:40:07;4.22;;;3.83;;
41219;SDS011;26951;47.338;9.196;2022-08-19T03:42:51;3.30;;;3.00;;
41219;SDS011;26951;47.338;9.196;2022-08-19T03:45:36;3.70;;;3.28;;
41219;SDS011;26951;47.338;9.196;2022-08-19T03:48:20;4.38;;;3.20;;
41219;SDS011;26951;47.338;9.196;2022-08-19T03:51:04;3.45;;;3.15;;
41219;SDS011;26951;47.338;9.196;2022-08-19T03:53:49;3.83;;;3.50;;
41219;SDS011;26951;47.338;9.196;2022-08-19T03:56:35;3.72;;;3.33;;
41219;SDS011;26951;47.338;9.196;2022-08-19T03:59:23;3.30;;;3.00;;
41219;SDS011;26951;47.338;9.196;2022-08-19T04:02:12;3.53;;;3.22;;
41219;SDS011;26951;47.338;9.196;2022-08-19T04:04:57;4.47;;;3.60;;
41219;SDS011;26951;47.338;9.196;2022-08-19T04:07:41;3.25;;;2.95;;
41219;SDS011;26951;47.338;9.196;2022-08-19T04:10:26;3.30;;;3.00;;
41219;SDS011;26951;47.338;9.196;2022-08-19T04:13:12;3.53;;;3.00;;
41219;SDS011;26951;47.338;9.196;2022-08-19T04:15:57;3.45;;;3.15;;
41219;SDS011;26951;47.338;9.196;2022-08-19T04:18:41;4.07;;;3.67;;
41219;SDS011;26951;47.338;9.196;2022-08-19T04:21:26;3.42;;;3.05;;
41219;SDS011;26951;47.338;9.196;2022-08-19T04:24:12;3.90;;;3.53;;
41219;SDS011;26951;47.338;9.196;2022-08-19T04:26:59;3.45;;;3.15;;
41219;SDS011;26951;47.338;9.196;2022-08-19T04:29:46;3.58;;;3.28;;
41219;SDS011;26951;47.338;9.196;2022-08-19T04:32:31;3.85;;;3.45;;
41219;SDS011;26951;47.338;9.196;2022-08-19T04:35:15;3.88;;;3.40;;
41219;SDS011;26951;47.338;9.196;2022-08-19T04:37:59;4.18;;;3.78;;
41219;SDS011;26951;47.338;9.196;2022-08-19T04:40:44;3.35;;;3.05;;
41219;SDS011;26951;47.338;9.196;2022-08-19T04:43:49;4.88;;;4.10;;
41219;SDS011;26951;47.338;9.196;2022-08-19T04:46:34;4.10;;;3.70;;
41219;SDS011;26951;47.338;9.196;2022-08-19T04:49:19;4.22;;;3.50;;
41219;SDS011;26951;47.338;9.196;2022-08-19T04:52:08;4.07;;;3.45;;
41219;SDS011;26951;47.338;9.196;2022-08-19T04:54:53;3.58;;;3.28;;
41219;SDS011;26951;47.338;9.196;2022-08-19T04:57:38;4.38;;;3.72;;
41219;SDS011;26951;47.338;9.196;2022-08-19T05:00:23;8.65;;;4.70;;
41219;SDS011;26951;47.338;9.196;2022-08-19T05:03:08;4.13;;;3.72;;
41219;SDS011;26951;47.338;9.196;2022-08-19T05:05:52;4.37;;;3.97;;
41219;SDS011;26951;47.338;9.196;2022-08-19T05:08:38;4.43;;;4.00;;
41219;SDS011;26951;47.338;9.196;2022-08-19T05:11:28;4.97;;;4.47;;
41219;SDS011;26951;47.338;9.196;2022-08-19T05:14:14;4.70;;;4.15;;
41219;SDS011;26951;47.338;9.196;2022-08-19T05:16:58;6.30;;;4.72;;
41219;SDS011;26951;47.338;9.196;2022-08-19T05:19:44;6.55;;;5.68;;
41219;SDS011;26951;47.338;9.196;2022-08-19T05:22:47;6.03;;;5.43;;
41219;SDS011;26951;47.338;9.196;2022-08-19T05:25:31;6.30;;;5.70;;
41219;SDS011;26951;47.338;9.196;2022-08-19T05:28:16;6.32;;;5.18;;
41219;SDS011;26951;47.338;9.196;2022-08-19T05:31:02;5.63;;;4.65;;
41219;SDS011;26951;47.338;9.196;2022-08-19T05:33:46;5.28;;;4.78;;
41219;SDS011;26951;47.338;9.196;2022-08-19T05:36:33;6.72;;;5.85;;
41219;SDS011;26951;47.338;9.196;2022-08-19T05:39:19;7.55;;;6.65;;
41219;SDS011;26951;47.338;9.196;2022-08-19T05:42:05;8.73;;;7.82;;
41219;SDS011;26951;47.338;9.196;2022-08-19T05:44:51;11.18;;;9.05;;
41219;SDS011;26951;47.338;9.196;2022-08-19T05:47:35;11.48;;;10.27;;
41219;SDS011;26951;47.338;9.196;2022-08-19T05:53:05;9.68;;;8.40;;
41219;SDS011;26951;47.338;9.196;2022-08-19T05:55:49;14.80;;;12.18;;
41219;SDS011;26951;47.338;9.196;2022-08-19T05:58:34;13.52;;;10.55;;
41219;SDS011;26951;47.338;9.196;2022-08-19T06:01:18;13.80;;;11.40;;
41219;SDS011;26951;47.338;9.196;2022-08-19T06:04:04;11.38;;;9.38;;
41219;SDS011;26951;47.338;9.196;2022-08-19T06:06:50;10.48;;;8.55;;
41219;SDS011;26951;47.338;9.196;2022-08-19T06:09:36;11.38;;;9.55;;
41219;SDS011;26951;47.338;9.196;2022-08-19T06:12:20;11.35;;;8.93;;
41219;SDS011;26951;47.338;9.196;2022-08-19T06:15:09;10.35;;;8.50;;
41219;SDS011;26951;47.338;9.196;2022-08-19T06:17:56;10.20;;;8.63;;
41219;SDS011;26951;47.338;9.196;2022-08-19T06:20:40;9.05;;;7.75;;
41219;SDS011;26951;47.338;9.196;2022-08-19T06:23:25;8.82;;;7.80;;
41219;SDS011;26951;47.338;9.196;2022-08-19T06:26:11;9.20;;;7.80;;
41219;SDS011;26951;47.338;9.196;2022-08-19T06:28:55;8.88;;;7.88;;
41219;SDS011;26951;47.338;9.196;2022-08-19T06:31:42;8.68;;;7.70;;
41219;SDS011;26951;47.338;9.196;2022-08-19T06:34:28;9.45;;;8.25;;
41219;SDS011;26951;47.338;9.196;2022-08-19T06:37:14;10.35;;;7.90;;
41219;SDS011;26951;47.338;9.196;2022-08-19T06:39:59;10.10;;;9.00;;
41219;SDS011;26951;47.338;9.196;2022-08-19T06:42:43;9.52;;;8.52;;
41219;SDS011;26951;47.338;9.196;2022-08-19T06:45:27;9.55;;;8.45;;
41219;SDS011;26951;47.338;9.196;2022-08-19T06:48:11;11.67;;;8.73;;
41219;SDS011;26951;47.338;9.196;2022-08-19T06:50:56;11.52;;;9.02;;
41219;SDS011;26951;47.338;9.196;2022-08-19T06:53:41;11.50;;;9.77;;
41219;SDS011;26951;47.338;9.196;2022-08-19T06:56:31;12.27;;;9.73;;
41219;SDS011;26951;47.338;9.196;2022-08-19T06:59:20;12.27;;;9.57;;
41219;SDS011;26951;47.338;9.196;2022-08-19T07:02:06;11.98;;;8.90;;
41219;SDS011;26951;47.338;9.196;2022-08-19T07:04:50;12.85;;;9.50;;
41219;SDS011;26951;47.338;9.196;2022-08-19T07:07:35;12.40;;;10.30;;
41219;SDS011;26951;47.338;9.196;2022-08-19T07:10:19;13.02;;;10.02;;
41219;SDS011;26951;47.338;9.196;2022-08-19T07:13:04;10.43;;;9.33;;
41219;SDS011;26951;47.338;9.196;2022-08-19T07:15:49;12.25;;;9.50;;
41219;SDS011;26951;47.338;9.196;2022-08-19T07:18:34;13.48;;;11.27;;
41219;SDS011;26951;47.338;9.196;2022-08-19T07:21:20;11.27;;;10.07;;
41219;SDS011;26951;47.338;9.196;2022-08-19T07:24:08;12.02;;;10.20;;
41219;SDS011;26951;47.338;9.196;2022-08-19T07:26:53;11.27;;;9.55;;
41219;SDS011;26951;47.338;9.196;2022-08-19T07:29:40;13.75;;;9.98;;
41219;SDS011;26951;47.338;9.196;2022-08-19T07:32:25;12.43;;;10.43;;
41219;SDS011;26951;47.338;9.196;2022-08-19T07:35:14;11.85;;;9.68;;
41219;SDS011;26951;47.338;9.196;2022-08-19T07:37:58;9.90;;;8.90;;
41219;SDS011;26951;47.338;9.196;2022-08-19T07:40:46;9.80;;;8.80;;
41219;SDS011;26951;47.338;9.196;2022-08-19T07:43:30;10.63;;;8.80;;
41219;SDS011;26951;47.338;9.196;2022-08-19T07:46:14;10.18;;;8.73;;
41219;SDS011;26951;47.338;9.196;2022-08-19T07:49:00;9.52;;;8.43;;
41219;SDS011;26951;47.338;9.196;2022-08-19T07:51:49;5.70;;;5.05;;
41219;SDS011;26951;47.338;9.196;2022-08-19T07:54:42;6.80;;;5.80;;
41219;SDS011;26951;47.338;9.196;2022-08-19T07:57:26;8.55;;;6.85;;
41219;SDS011;26951;47.338;9.196;2022-08-19T08:00:10;6.40;;;5.70;;
41219;SDS011;26951;47.338;9.196;2022-08-19T08:02:55;5.47;;;4.93;;
41219;SDS011;26951;47.338;9.196;2022-08-19T08:05:39;4.13;;;3.58;;
41219;SDS011;26951;47.338;9.196;2022-08-19T08:08:43;3.67;;;3.38;;
41219;SDS011;26951;47.338;9.196;2022-08-19T08:14:42;7.72;;;6.35;;
41219;SDS011;26951;47.338;9.196;2022-08-19T08:17:29;10.50;;;8.32;;
41219;SDS011;26951;47.338;9.196;2022-08-19T08:20:15;9.90;;;8.45;;
41219;SDS011;26951;47.338;9.196;2022-08-19T08:23:00;11.75;;;9.30;;
41219;SDS011;26951;47.338;9.196;2022-08-19T08:26:03;12.95;;;10.00;;
41219;SDS011;26951;47.338;9.196;2022-08-19T08:28:48;12.88;;;10.07;;
41219;SDS011;26951;47.338;9.196;2022-08-19T08:31:32;11.50;;;9.63;;
41219;SDS011;26951;47.338;9.196;2022-08-19T08:34:17;10.45;;;9.20;;
41219;SDS011;26951;47.338;9.196;2022-08-19T08:37:01;10.90;;;9.30;;
41219;SDS011;26951;47.338;9.196;2022-08-19T08:39:46;13.18;;;9.95;;
41219;SDS011;26951;47.338;9.196;2022-08-19T08:42:32;12.63;;;9.98;;
41219;SDS011;26951;47.338;9.196;2022-08-19T08:45:20;12.45;;;10.45;;
41219;SDS011;26951;47.338;9.196;2022-08-19T08:48:10;13.70;;;10.20;;
41219;SDS011;26951;47.338;9.196;2022-08-19T08:51:07;15.50;;;13.30;;
41219;SDS011;26951;47.338;9.196;2022-08-19T08:53:56;16.55;;;13.13;;
41219;SDS011;26951;47.338;9.196;2022-08-19T08:56:41;12.27;;;10.02;;
41219;SDS011;26951;47.338;9.196;2022-08-19T08:59:28;12.85;;;10.77;;
41219;SDS011;26951;47.338;9.196;2022-08-19T09:02:18;15.52;;;11.00;;
41219;SDS011;26951;47.338;9.196;2022-08-19T09:05:02;12.65;;;10.75;;
41219;SDS011;26951;47.338;9.196;2022-08-19T09:10:54;15.20;;;11.75;;
41219;SDS011;26951;47.338;9.196;2022-08-19T09:16:52;15.82;;;12.38;;
41219;SDS011;26951;47.338;9.196;2022-08-19T09:22:53;18.17;;;13.73;;
41219;SDS011;26951;47.338;9.196;2022-08-19T09:25:37;17.48;;;12.88;;
41219;SDS011;26951;47.338;9.196;2022-08-19T09:28:23;18.90;;;14.90;;
41219;SDS011;26951;47.338;9.196;2022-08-19T09:31:07;18.75;;;15.00;;
41219;SDS011;26951;47.338;9.196;2022-08-19T09:33:52;21.03;;;15.93;;
41219;SDS011;26951;47.338;9.196;2022-08-19T09:36:40;21.35;;;15.57;;
41219;SDS011;26951;47.338;9.196;2022-08-19T09:39:24;20.73;;;15.90;;
41219;SDS011;26951;47.338;9.196;2022-08-19T09:42:08;18.95;;;15.02;;
41219;SDS011;26951;47.338;9.196;2022-08-19T09:44:55;19.88;;;14.43;;
41219;SDS011;26951;47.338;9.196;2022-08-19T09:47:39;16.27;;;12.70;;
41219;SDS011;26951;47.338;9.196;2022-08-19T09:50:24;18.35;;;13.35;;
41219;SDS011;26951;47.338;9.196;2022-08-19T09:53:08;19.98;;;14.20;;
41219;SDS011;26951;47.338;9.196;2022-08-19T09:55:54;26.48;;;18.13;;
41219;SDS011;26951;47.338;9.196;2022-08-19T09:58:39;23.55;;;18.55;;
41219;SDS011;26951;47.338;9.196;2022-08-19T10:01:25;20.20;;;15.88;;
41219;SDS011;26951;47.338;9.196;2022-08-19T10:04:12;20.80;;;16.20;;
41219;SDS011;26951;47.338;9.196;2022-08-19T10:06:56;21.02;;;16.25;;
41219;SDS011;26951;47.338;9.196;2022-08-19T10:09:40;20.40;;;15.95;;
41219;SDS011;26951;47.338;9.196;2022-08-19T10:12:24;19.55;;;14.93;;
41219;SDS011;26951;47.338;9.196;2022-08-19T10:15:08;21.02;;;15.85;;
41219;SDS011;26951;47.338;9.196;2022-08-19T10:17:53;18.33;;;15.07;;
41219;SDS011;26951;47.338;9.196;2022-08-19T10:20:37;22.75;;;15.38;;
41219;SDS011;26951;47.338;9.196;2022-08-19T10:23:21;20.77;;;15.00;;
41219;SDS011;26951;47.338;9.196;2022-08-19T10:26:06;18.10;;;14.05;;
41219;SDS011;26951;47.338;9.196;2022-08-19T10:28:51;19.00;;;14.07;;
41219;SDS011;26951;47.338;9.196;2022-08-19T10:31:35;16.77;;;12.40;;
41219;SDS011;26951;47.338;9.196;2022-08-19T10:34:20;18.13;;;14.10;;
41219;SDS011;26951;47.338;9.196;2022-08-19T10:37:04;17.63;;;12.90;;
41219;SDS011;26951;47.338;9.196;2022-08-19T10:39:49;16.65;;;14.43;;
41219;SDS011;26951;47.338;9.196;2022-08-19T10:42:34;8.98;;;7.95;;
41219;SDS011;26951;47.338;9.196;2022-08-19T10:48:09;9.68;;;7.93;;
41219;SDS011;26951;47.338;9.196;2022-08-19T10:50:53;12.23;;;9.73;;
41219;SDS011;26951;47.338;9.196;2022-08-19T10:53:56;10.45;;;8.55;;
41219;SDS011;26951;47.338;9.196;2022-08-19T10:56:41;10.50;;;8.90;;
41219;SDS011;26951;47.338;9.196;2022-08-19T10:59:35;9.93;;;8.48;;
41219;SDS011;26951;47.338;9.196;2022-08-19T11:02:19;11.73;;;9.55;;
41219;SDS011;26951;47.338;9.196;2022-08-19T11:05:03;9.75;;;8.43;;
41219;SDS011;26951;47.338;9.196;2022-08-19T11:07:49;11.02;;;8.38;;
41219;SDS011;26951;47.338;9.196;2022-08-19T11:10:34;12.77;;;9.57;;
41219;SDS011;26951;47.338;9.196;2022-08-19T11:13:20;11.27;;;8.85;;
41219;SDS011;26951;47.338;9.196;2022-08-19T11:16:06;11.57;;;8.93;;
41219;SDS011;26951;47.338;9.196;2022-08-19T11:18:57;11.70;;;9.90;;
41219;SDS011;26951;47.338;9.196;2022-08-19T11:21:43;11.27;;;9.40;;
41219;SDS011;26951;47.338;9.196;2022-08-19T11:24:30;10.07;;;8.30;;
41219;SDS011;26951;47.338;9.196;2022-08-19T11:27:14;10.43;;;9.33;;
41219;SDS011;26951;47.338;9.196;2022-08-19T11:29:59;11.52;;;9.20;;
41219;SDS011;26951;47.338;9.196;2022-08-19T11:32:44;10.27;;;8.38;;
41219;SDS011;26951;47.338;9.196;2022-08-19T11:35:28;11.43;;;9.50;;
41219;SDS011;26951;47.338;9.196;2022-08-19T11:38:13;11.43;;;8.55;;
41219;SDS011;26951;47.338;9.196;2022-08-19T11:40:59;11.60;;;9.10;;
41219;SDS011;26951;47.338;9.196;2022-08-19T11:43:45;10.75;;;9.18;;
41219;SDS011;26951;47.338;9.196;2022-08-19T11:46:30;9.97;;;8.27;;
41219;SDS011;26951;47.338;9.196;2022-08-19T11:49:18;9.13;;;8.13;;
41219;SDS011;26951;47.338;9.196;2022-08-19T11:52:04;9.05;;;8.02;;
41219;SDS011;26951;47.338;9.196;2022-08-19T11:54:49;8.55;;;7.40;;
41219;SDS011;26951;47.338;9.196;2022-08-19T11:57:33;8.27;;;7.43;;
41219;SDS011;26951;47.338;9.196;2022-08-19T12:00:17;9.68;;;8.68;;
41219;SDS011;26951;47.338;9.196;2022-08-19T12:03:02;9.95;;;8.45;;
41219;SDS011;26951;47.338;9.196;2022-08-19T12:05:46;10.05;;;8.77;;
41219;SDS011;26951;47.338;9.196;2022-08-19T12:08:31;10.63;;;8.70;;
41219;SDS011;26951;47.338;9.196;2022-08-19T12:11:15;10.20;;;8.30;;
41219;SDS011;26951;47.338;9.196;2022-08-19T12:14:00;9.20;;;8.20;;
41219;SDS011;26951;47.338;9.196;2022-08-19T12:16:44;10.50;;;8.45;;
41219;SDS011;26951;47.338;9.196;2022-08-19T12:19:30;9.07;;;8.18;;
41219;SDS011;26951;47.338;9.196;2022-08-19T12:22:14;9.80;;;8.73;;
41219;SDS011;26951;47.338;9.196;2022-08-19T12:24:59;9.82;;;8.32;;
41219;SDS011;26951;47.338;9.196;2022-08-19T12:27:43;7.88;;;7.05;;
41219;SDS011;26951;47.338;9.196;2022-08-19T12:30:28;11.30;;;9.10;;
41219;SDS011;26951;47.338;9.196;2022-08-19T12:33:13;10.35;;;8.95;;
41219;SDS011;26951;47.338;9.196;2022-08-19T12:36:05;8.98;;;8.07;;
41219;SDS011;26951;47.338;9.196;2022-08-19T12:38:51;8.52;;;7.63;;
41219;SDS011;26951;47.338;9.196;2022-08-19T12:41:36;9.68;;;8.68;;
41219;SDS011;26951;47.338;9.196;2022-08-19T12:44:21;9.00;;;7.77;;
41219;SDS011;26951;47.338;9.196;2022-08-19T12:47:07;10.57;;;9.48;;
41219;SDS011;26951;47.338;9.196;2022-08-19T12:49:53;12.57;;;10.52;;
41219;SDS011;26951;47.338;9.196;2022-08-19T12:52:37;11.48;;;10.27;;
41219;SDS011;26951;47.338;9.196;2022-08-19T12:55:22;12.18;;;10.35;;
41219;SDS011;26951;47.338;9.196;2022-08-19T12:58:06;12.90;;;9.98;;
41219;SDS011;26951;47.338;9.196;2022-08-19T13:00:50;11.27;;;10.02;;
41219;SDS011;26951;47.338;9.196;2022-08-19T13:03:34;11.60;;;10.32;;
41219;SDS011;26951;47.338;9.196;2022-08-19T13:06:18;10.52;;;9.38;;
41219;SDS011;26951;47.338;9.196;2022-08-19T13:09:03;12.25;;;10.15;;
41219;SDS011;26951;47.338;9.196;2022-08-19T13:11:48;10.55;;;9.45;;
41219;SDS011;26951;47.338;9.196;2022-08-19T13:14:32;11.50;;;10.32;;
41219;SDS011;26951;47.338;9.196;2022-08-19T13:17:18;11.50;;;9.55;;
41219;SDS011;26951;47.338;9.196;2022-08-19T13:20:03;11.90;;;9.63;;
41219;SDS011;26951;47.338;9.196;2022-08-19T13:22:51;11.50;;;9.90;;
41219;SDS011;26951;47.338;9.196;2022-08-19T13:25:35;9.35;;;8.35;;
41219;SDS011;26951;47.338;9.196;2022-08-19T13:28:20;10.90;;;9.32;;
41219;SDS011;26951;47.338;9.196;2022-08-19T13:31:04;10.63;;;8.63;;
41219;SDS011;26951;47.338;9.196;2022-08-19T13:34:07;11.07;;;9.30;;
41219;SDS011;26951;47.338;9.196;2022-08-19T13:36:52;10.20;;;9.05;;
41219;SDS011;26951;47.338;9.196;2022-08-19T13:39:36;11.38;;;9.65;;
41219;SDS011;26951;47.338;9.196;2022-08-19T13:42:20;10.20;;;8.57;;
41219;SDS011;26951;47.338;9.196;2022-08-19T13:45:05;9.57;;;8.57;;
41219;SDS011;26951;47.338;9.196;2022-08-19T13:47:50;10.25;;;8.20;;
41219;SDS011;26951;47.338;9.196;2022-08-19T13:50:41;9.77;;;8.40;;
41219;SDS011;26951;47.338;9.196;2022-08-19T13:53:27;9.48;;;8.48;;
41219;SDS011;26951;47.338;9.196;2022-08-19T13:56:14;10.00;;;8.93;;
41219;SDS011;26951;47.338;9.196;2022-08-19T13:59:00;10.43;;;9.00;;
41219;SDS011;26951;47.338;9.196;2022-08-19T14:01:44;13.88;;;11.77;;
41219;SDS011;26951;47.338;9.196;2022-08-19T14:04:29;12.85;;;11.40;;
41219;SDS011;26951;47.338;9.196;2022-08-19T14:07:13;13.93;;;12.43;;
41219;SDS011;26951;47.338;9.196;2022-08-19T14:09:57;13.07;;;11.67;;
41219;SDS011;26951;47.338;9.196;2022-08-19T14:12:41;13.10;;;11.70;;
41219;SDS011;26951;47.338;9.196;2022-08-19T14:15:26;13.38;;;11.98;;
41219;SDS011;26951;47.338;9.196;2022-08-19T14:20:55;13.65;;;11.90;;
41219;SDS011;26951;47.338;9.196;2022-08-19T14:23:42;15.50;;;13.70;;
41219;SDS011;26951;47.338;9.196;2022-08-19T14:26:28;12.60;;;11.30;;
41219;SDS011;26951;47.338;9.196;2022-08-19T14:29:12;14.45;;;12.70;;
41219;SDS011;26951;47.338;9.196;2022-08-19T14:31:56;16.38;;;13.73;;
41219;SDS011;26951;47.338;9.196;2022-08-19T14:34:42;14.70;;;13.20;;
41219;SDS011;26951;47.338;9.196;2022-08-19T14:37:29;16.20;;;14.50;;
41219;SDS011;26951;47.338;9.196;2022-08-19T14:40:14;16.27;;;14.23;;
41219;SDS011;26951;47.338;9.196;2022-08-19T14:43:09;16.70;;;14.90;;
41219;SDS011;26951;47.338;9.196;2022-08-19T14:45:53;17.80;;;15.85;;
41219;SDS011;26951;47.338;9.196;2022-08-19T14:48:37;18.90;;;15.52;;
41219;SDS011;26951;47.338;9.196;2022-08-19T14:51:24;16.08;;;13.70;;
41219;SDS011;26951;47.338;9.196;2022-08-19T14:54:10;17.30;;;15.40;;
41219;SDS011;26951;47.338;9.196;2022-08-19T14:56:54;19.48;;;16.00;;
41219;SDS011;26951;47.338;9.196;2022-08-19T14:59:38;15.70;;;13.87;;
41219;SDS011;26951;47.338;9.196;2022-08-19T15:02:23;15.63;;;13.80;;
41219;SDS011;26951;47.338;9.196;2022-08-19T15:05:07;16.48;;;13.75;;
41219;SDS011;26951;47.338;9.196;2022-08-19T15:07:52;17.23;;;14.75;;
41219;SDS011;26951;47.338;9.196;2022-08-19T15:10:38;15.75;;;13.73;;
41219;SDS011;26951;47.338;9.196;2022-08-19T15:13:23;17.75;;;15.10;;
41219;SDS011;26951;47.338;9.196;2022-08-19T15:18:54;15.18;;;13.55;;
41219;SDS011;26951;47.338;9.196;2022-08-19T15:21:40;15.75;;;14.05;;
41219;SDS011;26951;47.338;9.196;2022-08-19T15:24:24;15.97;;;14.03;;
41219;SDS011;26951;47.338;9.196;2022-08-19T15:27:09;16.13;;;13.77;;
41219;SDS011;26951;47.338;9.196;2022-08-19T15:29:53;17.83;;;15.88;;
41219;SDS011;26951;47.338;9.196;2022-08-19T15:32:37;18.05;;;14.43;;
41219;SDS011;26951;47.338;9.196;2022-08-19T15:35:22;16.25;;;14.52;;
41219;SDS011;26951;47.338;9.196;2022-08-19T15:38:07;17.17;;;14.80;;
41219;SDS011;26951;47.338;9.196;2022-08-19T15:40:52;16.85;;;15.05;;
41219;SDS011;26951;47.338;9.196;2022-08-19T15:43:37;19.70;;;15.80;;
41219;SDS011;26951;47.338;9.196;2022-08-19T15:46:26;19.63;;;16.92;;
41219;SDS011;26951;47.338;9.196;2022-08-19T15:49:12;20.13;;;16.65;;
41219;SDS011;26951;47.338;9.196;2022-08-19T15:51:58;19.83;;;17.00;;
41219;SDS011;26951;47.338;9.196;2022-08-19T15:54:44;18.52;;;16.40;;
41219;SDS011;26951;47.338;9.196;2022-08-19T15:57:28;20.67;;;17.25;;
41219;SDS011;26951;47.338;9.196;2022-08-19T16:00:12;19.83;;;16.20;;
41219;SDS011;26951;47.338;9.196;2022-08-19T16:03:15;21.00;;;16.45;;
41219;SDS011;26951;47.338;9.196;2022-08-19T16:06:18;19.15;;;16.45;;
41219;SDS011;26951;47.338;9.196;2022-08-19T16:09:09;18.33;;;16.20;;
41219;SDS011;26951;47.338;9.196;2022-08-19T16:12:03;18.30;;;16.17;;
41219;SDS011;26951;47.338;9.196;2022-08-19T16:14:48;18.65;;;16.38;;
41219;SDS011;26951;47.338;9.196;2022-08-19T16:17:33;18.23;;;16.27;;
41219;SDS011;26951;47.338;9.196;2022-08-19T16:20:18;17.95;;;15.45;;
41219;SDS011;26951;47.338;9.196;2022-08-19T16:23:04;17.65;;;15.77;;
41219;SDS011;26951;47.338;9.196;2022-08-19T16:25:49;17.27;;;15.48;;
41219;SDS011;26951;47.338;9.196;2022-08-19T16:28:33;16.58;;;14.45;;
41219;SDS011;26951;47.338;9.196;2022-08-19T16:31:17;19.92;;;15.70;;
41219;SDS011;26951;47.338;9.196;2022-08-19T16:34:01;16.15;;;14.20;;
41219;SDS011;26951;47.338;9.196;2022-08-19T16:36:46;17.17;;;14.68;;
41219;SDS011;26951;47.338;9.196;2022-08-19T16:39:30;16.67;;;14.88;;
41219;SDS011;26951;47.338;9.196;2022-08-19T16:42:15;16.98;;;14.40;;
41219;SDS011;26951;47.338;9.196;2022-08-19T16:44:59;18.17;;;14.77;;
41219;SDS011;26951;47.338;9.196;2022-08-19T16:47:43;18.17;;;15.45;;
41219;SDS011;26951;47.338;9.196;2022-08-19T16:50:27;15.60;;;13.90;;
41219;SDS011;26951;47.338;9.196;2022-08-19T16:53:12;16.95;;;14.05;;
41219;SDS011;26951;47.338;9.196;2022-08-19T16:55:59;16.40;;;13.40;;